Time;durP1;ratioP1;P1;durP2;ratioP2;P2;SDS_P1;SDS_P2;PMS_P1;PMS_P2;Temp;Humidity;BMP_temperature;BMP_pressure;BME280_temperature;BME280_humidity;BME280_pressure;Samples;Min_cycle;Max_cycle;Signal;HPM_P1;HPM_P2
2021/04/10 00:01:43;;;;;;;24.52;14.13;;;;;;;3.95;98.02;99864.97;1764036;80;21054;-73
2021/04/10 00:04:18;;;;;;;25.50;15.10;;;;;;;3.95;98.28;99854.11;1773688;79;21262;-74
2021/04/10 00:06:45;;;;;;;23.07;15.03;;;;;;;3.94;98.47;99848.42;1776857;79;21096;-73
2021/04/10 00:09:16;;;;;;;22.93;14.35;;;;;;;3.96;98.32;99848.47;1709696;82;21527;-73
2021/04/10 00:11:48;;;;;;;20.12;14.45;;;;;;;3.96;98.22;99853.27;1737243;81;20959;-74
2021/04/10 00:14:19;;;;;;;27.82;15.98;;;;;;;3.94;97.94;99850.14;1737336;81;21057;-73
2021/04/10 00:16:51;;;;;;;25.50;14.38;;;;;;;3.93;97.89;99850.56;1737887;81;21270;-74
2021/04/10 00:19:25;;;;;;;25.17;15.78;;;;;;;3.96;97.82;99849.35;1736568;81;20974;-74
2021/04/10 00:21:58;;;;;;;24.05;15.10;;;;;;;3.98;97.93;99849.40;1753153;80;20938;-75
2021/04/10 00:24:31;;;;;;;22.50;14.68;;;;;;;3.99;98.03;99850.75;1772641;79;21002;-75
2021/04/10 00:27:02;;;;;;;24.87;14.45;;;;;;;4.00;97.82;99851.64;1775786;79;21132;-75
2021/04/10 00:29:32;;;;;;;21.70;14.35;;;;;;;4.02;97.78;99854.77;1746614;80;21209;-74
2021/04/10 00:32:06;;;;;;;23.20;14.03;;;;;;;4.02;97.51;99854.77;1750685;80;20958;-75
2021/04/10 00:34:37;;;;;;;23.65;14.53;;;;;;;4.00;97.30;99856.86;1748551;80;21002;-74
2021/04/10 00:37:13;;;;;;;23.67;15.70;;;;;;;3.97;97.03;99855.46;1744380;80;20910;-73
2021/04/10 00:39:49;;;;;;;24.37;15.72;;;;;;;3.94;97.11;99851.03;1766693;79;21069;-74
2021/04/10 00:42:23;;;;;;;23.40;15.32;;;;;;;3.94;97.25;99847.11;1746472;81;22361;-74
2021/04/10 00:45:00;;;;;;;22.13;15.20;;;;;;;3.94;97.62;99848.84;1746359;81;21081;-74
2021/04/10 00:47:33;;;;;;;23.10;15.18;;;;;;;3.93;97.63;99851.87;1746460;81;20997;-74
2021/04/10 00:50:06;;;;;;;24.87;15.18;;;;;;;3.90;97.59;99854.38;1748542;80;21116;-74
2021/04/10 00:52:37;;;;;;;25.05;15.55;;;;;;;3.88;97.64;99847.34;1746553;81;20931;-73
2021/04/10 00:55:17;;;;;;;28.02;16.62;;;;;;;3.87;97.62;99842.55;1746494;82;21374;-75
2021/04/10 00:57:48;;;;;;;25.15;15.63;;;;;;;3.84;97.54;99850.70;1746351;81;20962;-74
2021/04/10 01:00:20;;;;;;;25.88;16.12;;;;;;;3.84;97.57;99846.36;1720169;81;21071;-74
2021/04/10 01:03:01;;;;;;;24.12;15.75;;;;;;;3.85;97.48;99849.86;1746402;81;20942;-74
2021/04/10 01:05:32;;;;;;;25.97;15.25;;;;;;;3.86;97.26;99843.80;1746384;82;21013;-74
2021/04/10 01:08:03;;;;;;;23.85;15.25;;;;;;;3.80;97.00;99839.27;1746443;82;21345;-74
2021/04/10 01:10:34;;;;;;;31.10;16.17;;;;;;;3.76;97.02;99847.81;1747159;80;20962;-74
2021/04/10 01:13:29;;;;;;;25.62;15.75;;;;;;;3.74;97.03;99842.95;1746477;80;21005;-73
2021/04/10 01:16:25;;;;;;;21.37;15.23;;;;;;;3.73;96.99;99843.38;1746363;81;21124;-74
2021/04/10 01:19:15;;;;;;;28.35;14.90;;;;;;;3.74;96.75;99837.74;1746289;80;20942;-74
2021/04/10 01:22:06;;;;;;;28.45;15.50;;;;;;;3.70;96.67;99839.78;1746446;81;21373;-74
2021/04/10 01:25:03;;;;;;;27.70;15.25;;;;;;;3.68;96.67;99848.87;1746419;81;21014;-74
2021/04/10 01:27:47;;;;;;;25.55;15.40;;;;;;;3.68;96.53;99838.85;1747143;80;21041;-75
2021/04/10 01:30:19;;;;;;;21.57;14.68;;;;;;;3.68;96.66;99849.29;1746576;82;20943;-74
2021/04/10 01:33:01;;;;;;;24.98;15.38;;;;;;;3.67;96.76;99844.48;1746493;81;20934;-74
2021/04/10 01:35:39;;;;;;;22.17;14.47;;;;;;;3.66;96.52;99849.66;1743915;81;21203;-74
2021/04/10 01:38:15;;;;;;;25.88;15.32;;;;;;;3.65;96.40;99848.77;1749744;80;21064;-74
2021/04/10 01:40:53;;;;;;;25.25;15.70;;;;;;;3.57;96.50;99846.33;1777101;79;20898;-74
2021/04/10 01:43:24;;;;;;;24.43;15.30;;;;;;;3.45;97.13;99845.52;1745082;81;20954;-74
2021/04/10 01:45:56;;;;;;;26.55;14.50;;;;;;;3.43;97.46;99850.20;1741131;81;20955;-75
2021/04/10 01:48:36;;;;;;;;;;;;;;;3.42;97.36;99852.34;1744481;81;21209;-74
2021/04/10 01:51:07;;;;;;;19.42;13.72;;;;;;;3.39;97.55;99850.52;1721167;81;20235;-74
2021/04/10 01:53:39;;;;;;;20.95;14.85;;;;;;;3.36;97.77;99844.32;1723292;82;23627;-74
2021/04/10 01:56:10;;;;;;;22.02;14.43;;;;;;;3.36;98.04;99849.12;1741036;82;20962;-74
2021/04/10 01:58:42;;;;;;;22.75;15.15;;;;;;;3.32;98.28;99845.94;1722817;81;21046;-74
2021/04/10 02:01:17;;;;;;;27.60;16.27;;;;;;;3.29;98.62;99857.95;1713632;82;21209;-74
2021/04/10 02:03:54;;;;;;;24.47;15.43;;;;;;;3.29;98.95;99853.63;1771593;79;21069;-74
2021/04/10 02:06:29;;;;;;;22.02;14.87;;;;;;;3.29;99.08;99849.72;1732182;81;21505;-74
2021/04/10 02:09:07;;;;;;;23.20;14.75;;;;;;;3.27;99.22;99848.78;1731659;83;20967;-75
2021/04/10 02:11:48;;;;;;;23.40;14.65;;;;;;;3.16;99.68;99844.92;1740943;81;20962;-73
2021/04/10 02:14:23;;;;;;;24.87;15.35;;;;;;;3.11;100.00;99844.77;1730933;82;21227;-74
2021/04/10 02:16:58;;;;;;;22.85;14.25;;;;;;;3.11;100.00;99849.98;1741121;81;21077;-74
2021/04/10 02:19:31;;;;;;;23.75;15.20;;;;;;;3.09;100.00;99839.91;1741465;81;20942;-74
2021/04/10 02:22:05;;;;;;;22.15;15.45;;;;;;;3.09;100.00;99844.23;1741112;82;21089;-74
2021/04/10 02:24:35;;;;;;;23.52;14.45;;;;;;;3.09;100.00;99838.61;1741269;82;20947;-73
2021/04/10 02:27:08;;;;;;;22.37;13.05;;;;;;;3.09;100.00;99841.22;1741362;82;21362;-74
2021/04/10 02:29:40;;;;;;;20.52;14.05;;;;;;;3.09;100.00;99844.23;1768404;79;21108;-73
2021/04/10 02:32:24;;;;;;;24.00;14.05;;;;;;;3.08;100.00;99839.86;1713892;83;21085;-74
2021/04/10 02:35:17;;;;;;;24.70;13.72;;;;;;;3.08;100.00;99851.59;1771782;79;21096;-74
2021/04/10 02:37:48;;;;;;;22.87;13.80;;;;;;;3.07;100.00;99845.48;1771442;79;20941;-75
2021/04/10 02:40:20;;;;;;;20.43;13.53;;;;;;;3.02;100.00;99844.45;1723241;81;20951;-74
2021/04/10 02:42:55;;;;;;;21.12;13.75;;;;;;;2.96;100.00;99843.34;1722416;82;21121;-73
2021/04/10 02:45:28;;;;;;;24.35;13.85;;;;;;;2.93;100.00;99848.03;1741086;81;20954;-74
2021/04/10 02:48:10;;;;;;;21.50;12.85;;;;;;;2.87;100.00;99846.52;1740470;81;20883;-74
2021/04/10 02:50:41;;;;;;;21.23;13.55;;;;;;;2.83;100.00;99850.70;1716526;82;21081;-74
2021/04/10 02:53:12;;;;;;;28.15;13.48;;;;;;;2.86;100.00;99852.98;1741366;81;21335;-74
2021/04/10 02:55:46;;;;;;;18.60;12.85;;;;;;;2.85;100.00;99850.79;1741227;81;21009;-74
2021/04/10 02:58:19;;;;;;;20.60;12.47;;;;;;;2.89;100.00;99855.69;1742079;81;21096;-74
2021/04/10 03:01:10;;;;;;;20.48;12.53;;;;;;;2.91;100.00;99857.94;1740159;81;20963;-75
2021/04/10 03:03:49;;;;;;;21.57;11.78;;;;;;;2.92;100.00;99853.19;1740844;82;21133;-74
2021/04/10 03:06:21;;;;;;;19.07;12.33;;;;;;;2.91;100.00;99852.72;1727133;81;20896;-74
2021/04/10 03:08:52;;;;;;;24.15;12.40;;;;;;;2.94;100.00;99849.81;1732406;81;20948;-74
2021/04/10 03:11:23;;;;;;;17.52;11.53;;;;;;;2.95;100.00;99849.39;1732532;81;21082;-73
2021/04/10 03:13:53;;;;;;;20.62;12.37;;;;;;;2.96;100.00;99857.27;1752995;80;20903;-73
2021/04/10 03:16:29;;;;;;;19.67;11.85;;;;;;;2.96;100.00;99858.98;1731033;82;21061;-73
2021/04/10 03:19:07;;;;;;;20.88;11.93;;;;;;;2.96;100.00;99855.96;1740612;82;20899;-70
2021/04/10 03:21:40;;;;;;;17.17;11.43;;;;;;;2.96;100.00;99859.87;1722978;82;20967;-69
2021/04/10 03:24:12;;;;;;;20.00;12.18;;;;;;;2.95;100.00;99862.00;1741383;81;20967;-73
2021/04/10 03:26:49;;;;;;;17.37;11.73;;;;;;;2.95;100.00;99865.03;1743099;79;20954;-71
2021/04/10 03:29:26;;;;;;;20.97;11.38;;;;;;;2.94;100.00;99861.95;1771714;79;20935;-71
2021/04/10 03:31:59;;;;;;;18.25;11.70;;;;;;;2.90;100.00;99858.35;1752075;81;22240;-71
2021/04/10 03:34:29;;;;;;;23.12;11.45;;;;;;;2.91;100.00;99865.33;1771420;80;20942;-73
2021/04/10 03:37:01;;;;;;;22.02;11.40;;;;;;;2.89;100.00;99861.79;1742943;81;21365;-75
2021/04/10 03:39:31;;;;;;;19.37;12.00;;;;;;;2.88;100.00;99861.31;1741052;81;20918;-71
2021/04/10 03:42:02;;;;;;;19.25;12.30;;;;;;;2.86;100.00;99863.40;1721983;82;20938;-72
2021/04/10 03:44:32;;;;;;;18.12;11.90;;;;;;;2.84;100.00;99858.13;1686483;82;22453;-72
2021/04/10 03:47:05;;;;;;;17.55;11.70;;;;;;;2.78;100.00;99856.58;1724954;82;20965;-70
2021/04/10 03:49:36;;;;;;;17.62;12.15;;;;;;;2.74;100.00;99862.09;1722817;82;20970;-72
2021/04/10 03:52:08;;;;;;;20.15;12.00;;;;;;;2.73;100.00;99861.63;1752050;80;21072;-70
2021/04/10 03:54:39;;;;;;;20.02;11.40;;;;;;;2.75;100.00;99860.38;1751303;80;21112;-71
2021/04/10 03:57:09;;;;;;;19.75;11.12;;;;;;;2.76;100.00;99860.43;1777742;80;21372;-72
2021/04/10 03:59:42;;;;;;;16.73;11.12;;;;;;;2.79;100.00;99863.14;1782066;80;20958;-70
2021/04/10 04:02:15;;;;;;;17.27;12.03;;;;;;;2.86;100.00;99864.70;1742018;82;21093;-72
2021/04/10 04:04:48;;;;;;;20.90;12.15;;;;;;;2.90;100.00;99861.38;1782412;79;21382;-72
2021/04/10 04:07:19;;;;;;;16.90;11.20;;;;;;;2.94;100.00;99864.14;1735428;81;21074;-70
2021/04/10 04:09:52;;;;;;;20.17;11.45;;;;;;;2.97;100.00;99862.95;1742535;81;22105;-70
2021/04/10 04:12:23;;;;;;;16.87;11.35;;;;;;;3.02;100.00;99867.02;1782114;80;21572;-70
2021/04/10 04:14:54;;;;;;;17.42;11.75;;;;;;;2.97;100.00;99865.55;1742511;81;20976;-72
2021/04/10 04:17:30;;;;;;;20.68;11.53;;;;;;;2.92;100.00;99869.72;1740328;82;20955;-72
2021/04/10 04:20:00;;;;;;;19.67;10.55;;;;;;;2.92;100.00;99867.11;1742719;82;20947;-72
2021/04/10 04:22:30;;;;;;;20.37;11.48;;;;;;;2.93;100.00;99874.09;1725205;82;21330;-71
2021/04/10 04:25:01;;;;;;;16.27;10.63;;;;;;;2.91;100.00;99873.16;1751201;82;20965;-71
2021/04/10 04:27:31;;;;;;;20.48;11.12;;;;;;;2.93;100.00;99876.70;1753371;80;20910;-72
2021/04/10 04:30:04;;;;;;;16.25;10.50;;;;;;;2.99;100.00;99872.13;1751231;80;20945;-71
2021/04/10 04:32:33;;;;;;;;;;;;;;;3.01;100.00;99872.64;1753795;80;21076;-72
2021/04/10 04:35:04;;;;;;;18.67;10.48;;;;;;;3.01;100.00;99873.95;1751181;80;22114;-72
2021/04/10 04:37:34;;;;;;;18.15;11.35;;;;;;;2.99;100.00;99880.83;1780625;79;21508;-70
2021/04/10 04:40:08;;;;;;;18.45;10.65;;;;;;;2.99;100.00;99879.94;1742554;81;20962;-71
2021/04/10 04:42:37;;;;;;;16.60;10.20;;;;;;;2.99;100.00;99879.52;1742375;81;21069;-69
2021/04/10 04:45:08;;;;;;;21.23;11.63;;;;;;;3.00;100.00;99883.02;1780966;80;20922;-71
2021/04/10 04:47:38;;;;;;;18.67;11.63;;;;;;;2.97;100.00;99877.28;1754162;80;21438;-69
2021/04/10 04:50:16;;;;;;;17.42;11.43;;;;;;;2.99;100.00;99878.22;1749252;82;20926;-69
2021/04/10 04:52:46;;;;;;;17.00;11.20;;;;;;;3.03;100.00;99890.94;1751334;80;20954;-70
2021/04/10 04:55:16;;;;;;;19.37;11.60;;;;;;;3.09;100.00;99887.25;1749461;80;20951;-71
2021/04/10 04:57:46;;;;;;;17.25;10.72;;;;;;;3.13;100.00;99886.11;1749265;82;21497;-71
2021/04/10 05:00:16;;;;;;;17.80;10.85;;;;;;;3.23;100.00;99889.03;1749218;80;21420;-69
2021/04/10 05:02:48;;;;;;;18.48;11.15;;;;;;;3.31;100.00;99890.19;1726566;80;20981;-71
2021/04/10 05:05:17;;;;;;;20.77;11.53;;;;;;;3.37;100.00;99891.73;1754591;79;20942;-70
2021/04/10 05:07:47;;;;;;;18.48;11.78;;;;;;;3.46;100.00;99888.13;1740545;82;20939;-70
2021/04/10 05:10:18;;;;;;;21.48;11.40;;;;;;;3.52;100.00;99887.45;1740569;81;20947;-70
2021/04/10 05:12:48;;;;;;;17.20;11.50;;;;;;;3.57;100.00;99885.88;1719653;82;21352;-71
2021/04/10 05:15:17;;;;;;;22.58;11.93;;;;;;;3.66;100.00;99892.70;1692467;83;21132;-69
2021/04/10 05:17:47;;;;;;;20.57;12.10;;;;;;;3.75;100.00;99892.59;1690928;83;20949;-71
2021/04/10 05:20:17;;;;;;;22.27;11.80;;;;;;;3.83;100.00;99889.38;1690916;83;21072;-70
2021/04/10 05:22:53;;;;;;;20.45;11.63;;;;;;;3.88;100.00;99891.30;1691079;83;20955;-71
2021/04/10 05:25:26;;;;;;;17.07;10.63;;;;;;;3.94;100.00;99898.44;1711335;83;21448;-70
2021/04/10 05:27:57;;;;;;;21.50;11.48;;;;;;;4.03;100.00;99894.39;1719651;82;20922;-70
2021/04/10 05:30:28;;;;;;;19.75;11.48;;;;;;;4.14;100.00;99889.50;1719714;82;20970;-72
2021/04/10 05:32:59;;;;;;;18.05;11.48;;;;;;;4.24;100.00;99891.98;1719639;82;21125;-65
2021/04/10 05:35:31;;;;;;;21.15;11.85;;;;;;;4.33;100.00;99889.27;1692974;83;21516;-71
2021/04/10 05:38:02;;;;;;;17.40;11.37;;;;;;;4.41;100.00;99889.07;1690927;83;21389;-70
2021/04/10 05:40:33;;;;;;;21.87;10.95;;;;;;;4.53;100.00;99890.27;1690718;83;21241;-69
2021/04/10 05:43:02;;;;;;;22.95;11.60;;;;;;;4.60;100.00;99887.00;1690855;83;20986;-70
2021/04/10 05:45:32;;;;;;;18.10;10.50;;;;;;;4.69;100.00;99894.69;1711581;83;21136;-69
2021/04/10 05:48:04;;;;;;;26.48;11.30;;;;;;;4.80;100.00;99891.11;1771685;79;20966;-70
2021/04/10 05:50:34;;;;;;;16.52;10.63;;;;;;;4.90;100.00;99894.86;1732025;81;21159;-71
2021/04/10 05:53:03;;;;;;;17.55;10.95;;;;;;;5.00;100.00;99895.59;1708436;81;21138;-69
2021/04/10 05:55:33;;;;;;;19.62;11.03;;;;;;;5.09;100.00;99896.26;1741168;82;21545;-70
2021/04/10 05:58:03;;;;;;;27.02;11.65;;;;;;;5.20;100.00;99897.44;1741104;81;20966;-69
2021/04/10 06:00:35;;;;;;;19.30;11.20;;;;;;;5.33;100.00;99900.45;1754538;79;21137;-70
2021/04/10 06:03:05;;;;;;;22.25;11.28;;;;;;;5.48;100.00;99902.59;1732211;81;21371;-70
2021/04/10 06:05:36;;;;;;;19.27;11.00;;;;;;;5.61;100.00;99899.86;1714319;81;21514;-70
2021/04/10 06:08:08;;;;;;;21.40;11.40;;;;;;;5.77;100.00;99899.86;1732452;81;20959;-70
2021/04/10 06:10:38;;;;;;;18.20;11.78;;;;;;;5.90;100.00;99894.98;1722931;82;20967;-70
2021/04/10 06:13:07;;;;;;;19.05;11.50;;;;;;;6.04;100.00;99887.46;1741168;82;20955;-70
2021/04/10 06:15:37;;;;;;;19.48;10.03;;;;;;;6.21;100.00;99891.39;1741258;81;21509;-69
2021/04/10 06:18:07;;;;;;;16.17;10.20;;;;;;;6.40;100.00;99891.80;1740962;82;21533;-69
2021/04/10 06:20:40;;;;;;;34.33;10.48;;;;;;;6.57;100.00;99891.74;1745919;79;20946;-70
2021/04/10 06:23:10;;;;;;;16.37;10.43;;;;;;;6.75;100.00;99888.66;1705277;83;21086;-70
2021/04/10 06:25:40;;;;;;;16.90;9.98;;;;;;;6.90;100.00;99888.97;1740666;81;20938;-70
2021/04/10 06:28:10;;;;;;;19.30;9.95;;;;;;;7.04;100.00;99886.63;1702536;84;21200;-69
2021/04/10 06:30:40;;;;;;;18.77;10.38;;;;;;;7.20;100.00;99893.97;1740655;81;20966;-70
2021/04/10 06:33:09;;;;;;;22.48;9.88;;;;;;;7.32;100.00;99893.31;1769992;81;20966;-69
2021/04/10 06:35:40;;;;;;;15.40;9.68;;;;;;;7.46;100.00;99891.39;1771321;81;20946;-69
2021/04/10 06:38:09;;;;;;;21.07;8.80;;;;;;;7.61;100.00;99889.93;1771190;79;20935;-70
2021/04/10 06:40:39;;;;;;;14.90;8.83;;;;;;;7.75;100.00;99894.56;1771075;79;22272;-70
2021/04/10 06:43:10;;;;;;;12.00;7.85;;;;;;;7.89;100.00;99891.73;1755835;81;20943;-71
2021/04/10 06:45:40;;;;;;;12.58;7.60;;;;;;;8.05;100.00;99888.95;1755934;79;20899;-73
2021/04/10 06:48:14;;;;;;;11.78;7.75;;;;;;;8.20;98.74;99881.30;1754721;81;20931;-69
2021/04/10 06:50:44;;;;;;;13.35;6.87;;;;;;;8.37;96.90;99883.31;1754310;80;21056;-71
2021/04/10 06:53:17;;;;;;;12.55;6.40;;;;;;;8.55;92.88;99879.66;1755657;79;21414;-70
2021/04/10 06:55:51;;;;;;;7.97;5.65;;;;;;;8.70;88.41;99882.49;1757726;81;21461;-70
2021/04/10 06:58:32;;;;;;;11.95;5.12;;;;;;;8.86;85.97;99884.00;1748914;80;21124;-69
2021/04/10 07:01:02;;;;;;;11.88;6.20;;;;;;;8.99;81.63;99884.20;1757548;79;20887;-69
2021/04/10 07:03:31;;;;;;;7.95;5.33;;;;;;;9.10;78.89;99887.84;1757977;81;20946;-73
2021/04/10 07:06:01;;;;;;;9.58;5.80;;;;;;;9.19;76.69;99884.86;1757791;79;21515;-69
2021/04/10 07:08:30;;;;;;;17.15;5.03;;;;;;;9.29;75.40;99875.75;1754972;80;21109;-69
2021/04/10 07:11:00;;;;;;;7.97;5.28;;;;;;;9.39;72.77;99880.25;1739085;81;21128;-69
2021/04/10 07:13:32;;;;;;;6.97;4.60;;;;;;;9.46;71.53;99886.06;1770870;79;20938;-71
2021/04/10 07:16:02;;;;;;;8.28;5.30;;;;;;;9.55;68.80;99887.90;1770540;81;21033;-71
2021/04/10 07:18:31;;;;;;;13.48;5.25;;;;;;;9.62;68.50;99885.77;1768949;79;21192;-69
2021/04/10 07:21:22;;;;;;;6.78;4.47;;;;;;;9.72;65.79;99892.89;1771149;81;21450;-72
2021/04/10 07:23:54;;;;;;;6.22;5.30;;;;;;;9.82;66.62;99887.27;1741014;82;20939;-72
2021/04/10 07:26:58;;;;;;;11.03;5.00;;;;;;;9.90;64.26;99888.20;1740929;81;21092;-74
2021/04/10 07:29:48;;;;;;;;;;;;;;;9.95;63.39;99889.16;1743698;81;21073;-75
2021/04/10 07:32:34;;;;;;;8.20;4.28;;;;;;;10.04;60.62;99891.87;1763671;79;21262;-72
2021/04/10 07:35:09;;;;;;;8.78;4.85;;;;;;;10.12;61.02;99895.00;1769289;81;21085;-73
2021/04/10 07:37:50;;;;;;;6.25;4.42;;;;;;;10.19;60.84;99884.51;1771519;81;20947;-73
2021/04/10 07:40:27;;;;;;;8.15;4.90;;;;;;;10.31;60.03;99887.27;1768082;81;20963;-73
2021/04/10 07:43:04;;;;;;;5.67;3.80;;;;;;;10.44;58.37;99888.69;1758264;79;20942;-73
2021/04/10 07:45:35;;;;;;;6.72;4.50;;;;;;;10.52;55.78;99884.34;1693107;82;21300;-68
2021/04/10 07:48:10;;;;;;;7.30;4.62;;;;;;;10.58;55.57;99885.25;1695670;83;20989;-71
2021/04/10 07:50:40;;;;;;;7.08;4.60;;;;;;;10.66;55.47;99878.27;1712303;82;21082;-70
2021/04/10 07:53:26;;;;;;;6.70;4.30;;;;;;;10.76;55.55;99879.63;1719692;82;20927;-71
2021/04/10 07:55:58;;;;;;;6.28;4.25;;;;;;;10.84;53.98;99881.86;1719606;83;20962;-69
2021/04/10 07:58:31;;;;;;;8.25;4.70;;;;;;;10.90;52.46;99876.20;1701619;83;21210;-70
2021/04/10 08:01:09;;;;;;;10.45;4.80;;;;;;;10.94;52.98;99875.34;1672685;83;21108;-70
2021/04/10 08:03:45;;;;;;;6.95;3.98;;;;;;;11.01;53.56;99878.87;1706447;83;20951;-68
2021/04/10 08:06:15;;;;;;;7.70;4.60;;;;;;;11.08;52.60;99883.30;1711379;82;21113;-67
2021/04/10 08:08:59;;;;;;;8.85;4.15;;;;;;;11.12;50.83;99871.87;1699206;83;21131;-70
2021/04/10 08:11:42;;;;;;;6.37;4.28;;;;;;;11.17;53.34;99866.17;1691282;83;21153;-76
2021/04/10 08:14:14;;;;;;;21.40;4.47;;;;;;;11.31;53.71;99867.52;1690914;83;21116;-76
2021/04/10 08:16:47;;;;;;;5.30;4.12;;;;;;;11.44;50.52;99872.42;1690881;83;21571;-70
2021/04/10 08:19:19;;;;;;;5.00;3.70;;;;;;;11.56;48.93;99865.40;1690934;83;21006;-79
2021/04/10 08:21:49;;;;;;;5.20;4.05;;;;;;;11.64;47.97;99862.77;1681032;83;21061;-80
2021/04/10 08:24:27;;;;;;;6.10;4.55;;;;;;;11.71;46.57;99868.49;1720610;82;21200;-77
2021/04/10 08:27:05;;;;;;;9.63;4.03;;;;;;;11.78;45.90;99861.04;1720606;82;21117;-78
2021/04/10 08:29:38;;;;;;;6.12;4.55;;;;;;;11.85;47.12;99861.52;1720493;82;20958;-79
2021/04/10 08:32:09;;;;;;;7.03;3.87;;;;;;;11.91;45.87;99861.95;1720314;83;21497;-72
2021/04/10 08:34:39;;;;;;;6.30;3.40;;;;;;;11.95;44.98;99854.02;1719406;82;21112;-68
2021/04/10 08:37:10;;;;;;;5.10;3.50;;;;;;;12.02;45.40;99851.38;1719168;83;21199;-69
2021/04/10 08:39:43;;;;;;;5.47;3.47;;;;;;;12.14;46.29;99856.20;1719033;82;21104;-69
2021/04/10 08:42:14;;;;;;;7.12;3.65;;;;;;;12.24;45.20;99853.98;1719285;83;21521;-70
2021/04/10 08:44:46;;;;;;;5.78;3.50;;;;;;;12.36;44.56;99850.91;1719445;82;21507;-70
2021/04/10 08:47:17;;;;;;;6.60;3.70;;;;;;;12.45;44.40;99856.17;1734276;82;21811;-69
2021/04/10 08:49:48;;;;;;;4.65;3.52;;;;;;;12.52;43.13;99856.59;1715456;82;22243;-71
2021/04/10 08:52:26;;;;;;;7.03;3.83;;;;;;;12.53;43.80;99852.62;1718057;82;21138;-70
2021/04/10 08:54:57;;;;;;;8.90;3.72;;;;;;;12.60;44.18;99857.02;1739615;82;21093;-70
2021/04/10 08:57:38;;;;;;;8.08;4.00;;;;;;;12.66;44.04;99850.81;1688818;83;21081;-70
2021/04/10 09:00:24;;;;;;;4.93;3.47;;;;;;;12.73;43.54;99861.82;1690139;84;21057;-69
2021/04/10 09:02:59;;;;;;;7.05;4.58;;;;;;;12.75;42.64;99846.81;1689818;85;21317;-71
2021/04/10 09:05:49;;;;;;;6.08;4.50;;;;;;;12.81;42.08;99856.53;1689543;85;20971;-71
2021/04/10 09:08:28;;;;;;;6.95;5.35;;;;;;;12.85;41.99;99847.69;1689828;85;21014;-71
2021/04/10 09:11:00;;;;;;;9.80;4.95;;;;;;;12.97;43.07;99836.16;1689875;83;20954;-70
2021/04/10 09:13:32;;;;;;;18.75;5.30;;;;;;;13.09;42.26;99842.71;1689935;84;20903;-71
2021/04/10 09:16:27;;;;;;;6.33;4.42;;;;;;;13.18;41.30;99837.40;1689958;83;21435;-70
2021/04/10 09:19:12;;;;;;;4.87;4.00;;;;;;;13.28;42.14;99840.91;1689418;84;21117;-66
2021/04/10 09:21:52;;;;;;;16.65;4.87;;;;;;;13.37;40.95;99834.22;1692943;83;21099;-67
2021/04/10 09:24:26;;;;;;;6.28;4.45;;;;;;;13.42;40.17;99837.72;1714123;83;21137;-66
2021/04/10 09:27:19;;;;;;;6.25;3.98;;;;;;;13.46;39.38;99833.72;1713150;83;21076;-65
2021/04/10 09:30:00;;;;;;;8.00;5.20;;;;;;;13.55;39.63;99834.97;1700986;83;22100;-69
2021/04/10 09:32:32;;;;;;;9.93;6.53;;;;;;;13.72;39.46;99829.57;1718156;83;20966;-68
2021/04/10 09:38:42;;;;;;;17.10;11.18;;;;;;;13.98;38.13;99835.98;1776959;78;22876;-72
2021/04/10 09:41:14;;;;;;;15.55;11.00;;;;;;;13.97;38.86;99832.89;1750334;80;20935;-70
2021/04/10 09:44:05;;;;;;;14.68;10.23;;;;;;;13.98;38.18;99833.33;1736856;82;21373;-70
2021/04/10 09:46:56;;;;;;;10.90;6.20;;;;;;;14.02;38.11;99826.22;1835720;78;23465;-70
2021/04/10 09:49:38;;;;;;;8.20;5.62;;;;;;;14.01;37.83;99830.64;1793064;79;21596;-66
2021/04/10 09:52:09;;;;;;;7.03;5.45;;;;;;;14.05;37.99;99828.39;1795717;78;21407;-67
2021/04/10 09:54:39;;;;;;;8.38;5.62;;;;;;;14.04;37.61;99812.49;1731513;79;21085;-67
2021/04/10 09:57:19;;;;;;;9.53;6.03;;;;;;;14.05;37.53;99819.55;1791946;79;20872;-68
2021/04/10 09:59:49;;;;;;;7.92;5.10;;;;;;;14.04;37.07;99824.43;1800691;79;21141;-66
2021/04/10 10:02:29;;;;;;;11.35;4.20;;;;;;;14.06;36.94;99814.68;1799113;79;21149;-67
2021/04/10 10:05:01;;;;;;;7.60;4.83;;;;;;;14.16;37.60;99819.88;1759487;79;21373;-66
2021/04/10 10:07:31;;;;;;;7.62;4.72;;;;;;;14.20;36.80;99825.19;1722518;81;20918;-67
2021/04/10 10:10:09;;;;;;;9.00;4.90;;;;;;;14.22;37.69;99808.80;1728645;81;21618;-67
2021/04/10 10:12:40;;;;;;;7.60;4.12;;;;;;;14.33;37.58;99812.22;1730622;82;21062;-67
2021/04/10 10:15:23;;;;;;;4.75;3.25;;;;;;;14.47;37.77;99819.17;1730591;82;21478;-67
2021/04/10 10:17:52;;;;;;;4.60;3.33;;;;;;;14.56;36.82;99817.30;1761564;79;21204;-69
2021/04/10 10:20:24;;;;;;;8.75;3.20;;;;;;;14.65;37.26;99819.84;1729766;81;21085;-68
2021/04/10 10:22:54;;;;;;;15.13;3.33;;;;;;;14.66;35.73;99809.25;1740406;80;21168;-68
2021/04/10 10:25:27;;;;;;;4.55;2.83;;;;;;;14.73;35.83;99800.75;1747191;81;21147;-68
2021/04/10 10:27:59;;;;;;;7.37;3.42;;;;;;;14.89;35.50;99800.98;1757334;79;20990;-66
2021/04/10 10:30:29;;;;;;;4.87;3.67;;;;;;;15.00;35.65;99797.73;1726576;82;22273;-68
2021/04/10 10:32:59;;;;;;;5.10;2.87;;;;;;;15.09;36.77;99792.28;1741346;80;20946;-67
2021/04/10 10:35:31;;;;;;;6.33;3.75;;;;;;;15.18;36.74;99794.41;1736382;81;21054;-67
2021/04/10 10:38:07;;;;;;;5.55;3.33;;;;;;;15.21;36.49;99789.93;1739534;81;20939;-67
2021/04/10 10:40:37;;;;;;;13.18;2.85;;;;;;;15.20;36.04;99787.30;1740779;81;21567;-67
2021/04/10 10:43:10;;;;;;;11.57;3.50;;;;;;;15.22;35.49;99787.70;1736476;80;21200;-64
2021/04/10 10:45:49;;;;;;;3.58;3.00;;;;;;;15.17;34.92;99784.69;1743405;81;21197;-70
2021/04/10 10:48:36;;;;;;;6.20;3.10;;;;;;;15.10;34.73;99784.74;1746420;81;21160;-68
2021/04/10 10:51:18;;;;;;;4.62;3.15;;;;;;;15.14;34.55;99787.39;1786094;78;20997;-70
2021/04/10 10:53:52;;;;;;;5.80;3.25;;;;;;;15.16;34.55;99774.51;1762613;80;20942;-71
2021/04/10 10:56:30;;;;;;;6.72;2.98;;;;;;;15.24;34.08;99766.42;1780566;78;21185;-70
2021/04/10 10:59:04;;;;;;;5.08;3.33;;;;;;;15.37;34.56;99774.17;1785285;78;20950;-70
2021/04/10 11:01:42;;;;;;;18.90;3.67;;;;;;;15.42;34.00;99777.64;1785715;78;20999;-69
2021/04/10 11:04:22;;;;;;;6.53;3.45;;;;;;;15.39;33.57;99768.39;1786283;79;20911;-65
2021/04/10 11:06:54;;;;;;;5.20;3.20;;;;;;;15.50;33.60;99762.02;1785542;78;20906;-71
2021/04/10 11:09:26;;;;;;;6.90;3.47;;;;;;;15.66;32.84;99759.59;1782204;78;21189;-72
2021/04/10 11:12:00;;;;;;;5.33;2.90;;;;;;;15.70;32.99;99766.16;1786786;78;21014;-71
2021/04/10 11:14:33;;;;;;;;;;;;;;;15.66;33.40;99752.94;1787155;80;20967;-71
2021/04/10 11:17:05;;;;;;;5.72;3.27;;;;;;;15.65;33.44;99757.38;1782010;78;20128;-71
2021/04/10 11:19:43;;;;;;;6.47;3.22;;;;;;;15.76;34.05;99757.20;1785640;79;21164;-73
2021/04/10 11:22:16;;;;;;;4.87;3.22;;;;;;;15.90;33.84;99753.84;1782535;79;21354;-73
2021/04/10 11:24:49;;;;;;;;;;;;;;;15.99;32.86;99752.80;1788772;78;21598;-72
2021/04/10 11:27:22;;;;;;;7.50;2.77;;;;;;;16.10;32.51;99756.16;1784187;78;20126;-68
2021/04/10 11:29:59;;;;;;;6.70;3.27;;;;;;;16.09;31.84;99746.42;1784551;78;21034;-72
2021/04/10 11:32:42;;;;;;;6.15;2.92;;;;;;;16.06;31.22;99743.34;1785141;80;21124;-70
2021/04/10 11:35:22;;;;;;;7.45;3.05;;;;;;;16.02;31.83;99744.75;1785058;80;22105;-72
2021/04/10 11:37:54;;;;;;;13.15;4.10;;;;;;;15.97;31.67;99748.83;1783576;78;21476;-72
2021/04/10 11:40:28;;;;;;;64.00;12.35;;;;;;;15.86;30.77;99740.16;1781882;78;21492;-72
2021/04/10 11:43:04;;;;;;;10.93;4.12;;;;;;;15.88;30.70;99729.50;1786852;79;21109;-68
2021/04/10 11:45:44;;;;;;;5.28;3.15;;;;;;;15.98;31.49;99736.40;1786700;78;21631;-70
2021/04/10 11:48:25;;;;;;;26.82;4.72;;;;;;;15.96;31.58;99732.89;1729584;82;21429;-72
2021/04/10 11:50:58;;;;;;;8.70;3.22;;;;;;;15.88;31.24;99725.05;1791725;78;20959;-72
2021/04/10 11:53:37;;;;;;;9.33;3.22;;;;;;;15.91;31.37;99713.48;1773867;79;20998;-71
2021/04/10 11:56:28;;;;;;;3.95;2.72;;;;;;;15.98;31.22;99720.44;1789625;79;21052;-72
2021/04/10 11:59:08;;;;;;;6.70;3.22;;;;;;;15.95;30.92;99708.52;1729839;82;21014;-72
2021/04/10 12:01:53;;;;;;;6.87;3.50;;;;;;;15.92;31.86;99707.25;1723614;82;21047;-70
2021/04/10 12:04:27;;;;;;;17.10;5.87;;;;;;;15.88;30.93;99702.44;1744206;81;21610;-72